createdAt,value
2022-09-14T00:01:44.515Z,2.33
2022-09-14T00:04:15.504Z,2.10
2022-09-14T00:06:43.368Z,2.13
2022-09-14T00:09:22.482Z,2.30
2022-09-14T00:11:50.950Z,2.00
2022-09-14T00:14:19.358Z,2.20
2022-09-14T00:16:46.804Z,2.25
2022-09-14T00:19:20.285Z,2.33
2022-09-14T00:21:54.268Z,2.38
2022-09-14T00:24:23.188Z,2.15
2022-09-14T00:26:51.176Z,2.38
2022-09-14T00:29:19.124Z,2.08
2022-09-14T00:31:46.735Z,2.10
2022-09-14T00:34:17.048Z,1.95
2022-09-14T00:36:47.866Z,2.08
2022-09-14T00:39:16.552Z,1.70
2022-09-14T00:41:46.600Z,1.95
2022-09-14T00:44:13.932Z,1.98
2022-09-14T00:46:45.638Z,2.00
2022-09-14T00:49:21.538Z,2.10
2022-09-14T00:52:09.142Z,2.00
2022-09-14T00:54:41.759Z,2.13
2022-09-14T00:57:09.595Z,2.17
2022-09-14T00:59:39.928Z,2.08
2022-09-14T01:02:09.623Z,2.13
2022-09-14T01:04:37.563Z,1.83
2022-09-14T01:07:17.977Z,1.95
2022-09-14T01:09:57.255Z,1.70
2022-09-14T01:12:50.527Z,2.20
2022-09-14T01:15:36.752Z,1.88
2022-09-14T01:21:20.342Z,2.00
2022-09-14T01:24:12.370Z,1.63
2022-09-14T01:27:07.602Z,1.90
2022-09-14T01:30:04.072Z,2.05
2022-09-14T01:32:41.170Z,1.70
2022-09-14T01:35:33.038Z,2.00
2022-09-14T01:38:12.755Z,2.10
2022-09-14T01:40:47.858Z,2.08
2022-09-14T01:43:30.120Z,2.08
2022-09-14T01:46:03.790Z,1.90
2022-09-14T01:49:06.242Z,1.95
2022-09-14T01:52:01.260Z,1.65
2022-09-14T01:54:28.638Z,1.70
2022-09-14T01:57:15.784Z,1.70
2022-09-14T01:59:49.684Z,1.80
2022-09-14T02:02:55.580Z,1.70
2022-09-14T02:05:41.686Z,1.75
2022-09-14T02:08:09.160Z,2.13
2022-09-14T02:10:36.962Z,1.67
2022-09-14T02:13:04.585Z,1.55
2022-09-14T02:15:32.016Z,1.48
2022-09-14T02:17:59.382Z,1.60
2022-09-14T02:20:49.063Z,2.17
2022-09-14T02:23:17.595Z,1.63
2022-09-14T02:25:46.621Z,1.98
2022-09-14T02:28:13.941Z,1.70
2022-09-14T02:31:07.320Z,1.77
2022-09-14T02:34:03.620Z,1.80
2022-09-14T02:36:52.343Z,1.90
2022-09-14T02:39:34.383Z,1.67
2022-09-14T02:42:12.275Z,2.05
2022-09-14T02:44:56.068Z,1.73
2022-09-14T02:47:39.825Z,1.90
2022-09-14T02:50:13.652Z,1.60
2022-09-14T02:52:54.295Z,1.67
2022-09-14T02:55:25.663Z,1.70
2022-09-14T02:58:09.065Z,1.90
2022-09-14T03:00:40.486Z,1.80
2022-09-14T03:03:10.362Z,1.63
2022-09-14T03:05:38.249Z,1.67
2022-09-14T03:08:05.950Z,1.65
2022-09-14T03:10:34.612Z,1.75
2022-09-14T03:13:01.905Z,1.63
2022-09-14T03:15:29.963Z,1.90
2022-09-14T03:17:57.359Z,1.67
2022-09-14T03:20:27.654Z,1.85
2022-09-14T03:22:54.991Z,1.80
2022-09-14T03:25:26.303Z,1.38
2022-09-14T03:27:56.667Z,1.48
2022-09-14T03:30:24.637Z,1.75
2022-09-14T03:32:51.947Z,1.70
2022-09-14T03:35:19.862Z,1.60
2022-09-14T03:37:47.823Z,1.80
2022-09-14T03:40:21.728Z,1.48
2022-09-14T03:42:51.819Z,1.70
2022-09-14T03:45:21.101Z,1.67
2022-09-14T03:47:51.175Z,1.67
2022-09-14T03:50:40.034Z,1.90
2022-09-14T03:53:27.440Z,1.70
2022-09-14T03:55:57.543Z,1.90
2022-09-14T03:58:25.279Z,1.75
2022-09-14T04:00:52.803Z,1.55
2022-09-14T04:03:21.409Z,1.60
2022-09-14T04:06:03.710Z,1.77
2022-09-14T04:08:35.067Z,1.52
2022-09-14T04:11:17.039Z,1.80
2022-09-14T04:13:45.033Z,1.95
2022-09-14T04:16:13.365Z,1.40
2022-09-14T04:24:56.410Z,1.70
2022-09-14T04:27:29.855Z,1.63
2022-09-14T04:30:40.171Z,1.70
2022-09-14T04:33:10.017Z,1.70
2022-09-14T04:35:47.223Z,1.60
2022-09-14T04:38:23.975Z,1.60
2022-09-14T04:44:31.323Z,1.50
2022-09-14T04:47:10.207Z,1.70
2022-09-14T04:49:58.451Z,1.73
2022-09-14T04:52:28.924Z,1.70
2022-09-14T04:54:56.269Z,3.17
2022-09-14T04:57:23.697Z,1.90
2022-09-14T04:59:51.067Z,1.98
2022-09-14T05:02:18.640Z,1.90
2022-09-14T05:04:46.145Z,1.92
2022-09-14T05:07:13.655Z,2.13
2022-09-14T05:09:42.002Z,2.72
2022-09-14T05:12:10.500Z,2.97
2022-09-14T05:14:37.882Z,3.80
2022-09-14T05:17:05.289Z,4.35
2022-09-14T05:19:32.831Z,3.30
2022-09-14T05:22:01.358Z,3.05
2022-09-14T05:24:28.991Z,3.35
2022-09-14T05:27:00.949Z,2.95
2022-09-14T05:29:30.230Z,2.97
2022-09-14T05:31:57.932Z,2.47
2022-09-14T05:34:25.479Z,4.03
2022-09-14T05:36:52.854Z,2.50
2022-09-14T05:39:23.321Z,2.25
2022-09-14T05:41:51.109Z,2.13
2022-09-14T05:44:18.666Z,2.80
2022-09-14T05:46:46.113Z,2.33
2022-09-14T05:49:13.570Z,2.70
2022-09-14T05:51:43.203Z,2.25
2022-09-14T05:54:11.925Z,2.15
2022-09-14T05:56:39.381Z,2.20
2022-09-14T05:59:11.068Z,2.22
2022-09-14T06:01:38.473Z,2.20
2022-09-14T06:04:06.030Z,2.33
2022-09-14T06:06:33.972Z,2.15
2022-09-14T06:09:02.038Z,2.38
2022-09-14T06:11:34.145Z,3.00
2022-09-14T06:14:01.561Z,2.60
2022-09-14T06:16:29.745Z,2.75
2022-09-14T06:18:58.902Z,2.78
2022-09-14T06:21:31.627Z,2.78
2022-09-14T06:23:59.485Z,3.05
2022-09-14T06:26:28.272Z,2.95
2022-09-14T06:28:57.001Z,2.53
2022-09-14T06:31:25.654Z,3.30
2022-09-14T06:33:53.858Z,2.80
2022-09-14T06:36:26.275Z,2.80
2022-09-14T06:38:58.442Z,2.90
2022-09-14T06:41:30.653Z,2.80
2022-09-14T06:43:59.912Z,2.92
2022-09-14T06:46:30.742Z,3.05
2022-09-14T06:49:01.944Z,3.25
2022-09-14T06:51:32.479Z,2.80
2022-09-14T06:54:04.052Z,3.40
2022-09-14T06:56:39.743Z,3.15
2022-09-14T06:59:08.886Z,3.63
2022-09-14T07:01:39.147Z,3.00
2022-09-14T07:04:08.603Z,2.80
2022-09-14T07:06:41.860Z,3.63
2022-09-14T07:09:09.461Z,3.00
2022-09-14T07:11:37.273Z,2.65
2022-09-14T07:14:05.009Z,3.10
2022-09-14T07:16:34.782Z,3.03
2022-09-14T07:19:05.492Z,2.80
2022-09-14T07:21:57.495Z,2.80
2022-09-14T07:24:34.365Z,3.20
2022-09-14T07:27:12.297Z,3.00
2022-09-14T07:29:42.456Z,2.95
2022-09-14T07:32:19.997Z,2.83
2022-09-14T07:34:50.622Z,2.83
2022-09-14T07:37:18.217Z,3.47
2022-09-14T07:39:46.434Z,3.03
2022-09-14T07:42:13.831Z,2.75
2022-09-14T07:44:41.386Z,2.40
2022-09-14T07:47:09.224Z,3.47
2022-09-14T07:49:36.733Z,2.80
2022-09-14T07:52:04.173Z,2.85
2022-09-14T07:54:31.702Z,3.00
2022-09-14T07:56:59.525Z,2.78
2022-09-14T07:59:36.779Z,3.20
2022-09-14T08:02:10.844Z,3.85
2022-09-14T08:04:40.957Z,2.08
2022-09-14T08:07:09.430Z,2.63
2022-09-14T08:09:39.438Z,2.10
2022-09-14T08:12:06.948Z,2.90
2022-09-14T08:14:34.383Z,2.70
2022-09-14T08:17:01.771Z,2.30
2022-09-14T08:19:29.473Z,2.45
2022-09-14T08:21:56.738Z,2.85
2022-09-14T08:24:24.138Z,2.13
2022-09-14T08:26:51.850Z,2.10
2022-09-14T08:29:19.875Z,2.10
2022-09-14T08:31:53.543Z,2.10
2022-09-14T08:34:21.290Z,2.58
2022-09-14T08:36:48.710Z,2.78
2022-09-14T08:39:19.811Z,2.50
2022-09-14T08:41:51.436Z,2.67
2022-09-14T08:44:28.907Z,2.80
2022-09-14T08:47:04.465Z,2.80
2022-09-14T08:49:34.712Z,2.80
2022-09-14T08:52:02.343Z,2.50
2022-09-14T08:54:29.920Z,2.78
2022-09-14T08:57:26.121Z,2.60
2022-09-14T09:00:08.448Z,2.20
2022-09-14T09:02:54.153Z,2.55
2022-09-14T09:05:26.136Z,2.60
2022-09-14T09:08:32.171Z,2.70
2022-09-14T09:11:01.730Z,2.03
2022-09-14T09:13:35.075Z,2.60
2022-09-14T09:16:05.471Z,2.40
2022-09-14T09:18:50.794Z,1.85
2022-09-14T09:21:30.428Z,2.50
2022-09-14T09:24:25.181Z,2.05
2022-09-14T09:26:52.529Z,2.22
2022-09-14T09:29:19.928Z,2.13
2022-09-14T09:32:10.148Z,1.95
2022-09-14T09:34:58.458Z,1.83
2022-09-14T09:37:46.358Z,2.45
2022-09-14T09:40:31.269Z,2.00
2022-09-14T09:43:09.434Z,1.80
2022-09-14T09:45:59.842Z,1.13
2022-09-14T09:48:39.450Z,1.38
2022-09-14T09:51:29.161Z,1.83
2022-09-14T09:54:04.055Z,1.75
2022-09-14T09:56:38.628Z,1.80
2022-09-14T09:59:28.076Z,1.60
2022-09-14T10:01:57.755Z,2.50
2022-09-14T10:04:33.281Z,2.20
2022-09-14T10:07:04.961Z,2.35
2022-09-14T10:09:36.917Z,1.95
2022-09-14T10:12:11.161Z,1.98
2022-09-14T10:14:41.759Z,1.95
2022-09-14T10:17:21.556Z,2.30
2022-09-14T10:19:52.554Z,1.77
2022-09-14T10:22:35.405Z,1.80
2022-09-14T10:25:22.521Z,2.00
2022-09-14T10:28:01.626Z,2.22
2022-09-14T10:30:40.916Z,1.83
2022-09-14T10:33:15.434Z,1.70
2022-09-14T10:36:01.558Z,2.05
2022-09-14T10:38:55.486Z,2.03
2022-09-14T10:41:34.481Z,1.90
2022-09-14T10:44:41.115Z,2.30
2022-09-14T10:47:30.048Z,2.42
2022-09-14T10:50:21.579Z,2.05
2022-09-14T10:53:01.220Z,2.55
2022-09-14T10:55:46.509Z,2.10
2022-09-14T11:01:17.491Z,2.63
2022-09-14T11:04:08.739Z,2.50
2022-09-14T11:06:44.873Z,2.10
2022-09-14T11:09:23.352Z,1.98
2022-09-14T11:12:20.026Z,2.33
2022-09-14T11:15:14.284Z,2.22
2022-09-14T11:17:50.563Z,2.05
2022-09-14T11:20:26.474Z,1.83
2022-09-14T11:23:12.902Z,2.55
2022-09-14T11:26:10.332Z,1.90
2022-09-14T11:28:45.877Z,1.98
2022-09-14T11:31:36.251Z,2.30
2022-09-14T11:34:25.726Z,2.10
2022-09-14T11:37:11.141Z,1.90
2022-09-14T11:39:56.344Z,2.40
2022-09-14T11:45:05.690Z,2.00
2022-09-14T11:47:43.367Z,1.92
2022-09-14T11:50:13.764Z,1.88
2022-09-14T11:52:41.185Z,2.28
2022-09-14T11:55:19.469Z,2.13
2022-09-14T11:57:49.877Z,2.13
2022-09-14T12:01:00.768Z,1.80
2022-09-14T12:03:52.543Z,2.00
2022-09-14T12:06:33.437Z,2.13
2022-09-14T12:09:24.192Z,2.20
2022-09-14T12:12:00.780Z,2.30
2022-09-14T12:14:34.596Z,2.97
2022-09-14T12:17:35.679Z,2.90
2022-09-14T12:20:30.334Z,2.67
2022-09-14T12:23:37.937Z,2.60
2022-09-14T12:26:10.762Z,2.30
2022-09-14T12:28:38.183Z,2.58
2022-09-14T12:31:12.226Z,3.10
2022-09-14T12:33:39.524Z,2.60
2022-09-14T12:36:33.017Z,2.50
2022-09-14T12:39:02.031Z,2.55
2022-09-14T12:41:29.670Z,2.30
2022-09-14T12:43:56.995Z,2.72
2022-09-14T12:46:24.278Z,2.28
2022-09-14T12:48:54.220Z,2.08
2022-09-14T12:51:51.591Z,2.38
2022-09-14T12:54:30.161Z,2.17
2022-09-14T12:57:26.376Z,2.50
2022-09-14T13:00:21.947Z,2.15
2022-09-14T13:05:30.082Z,2.60
2022-09-14T13:07:58.461Z,2.03
2022-09-14T13:10:38.139Z,2.40
2022-09-14T13:13:28.063Z,2.10
2022-09-14T13:16:07.459Z,2.10
2022-09-14T13:18:38.877Z,2.20
2022-09-14T13:21:25.462Z,2.50
2022-09-14T13:23:55.779Z,2.05
2022-09-14T13:26:29.953Z,1.88
2022-09-14T13:28:59.774Z,2.35
2022-09-14T13:31:49.812Z,1.80
2022-09-14T13:34:30.031Z,2.22
2022-09-14T13:36:58.080Z,2.05
2022-09-14T13:39:33.901Z,2.47
2022-09-14T13:42:04.760Z,2.00
2022-09-14T13:44:53.756Z,1.70
2022-09-14T13:47:25.975Z,2.15
2022-09-14T13:49:56.885Z,2.20
2022-09-14T13:52:49.639Z,2.10
2022-09-14T13:55:29.636Z,2.00
2022-09-14T13:58:09.817Z,1.75
2022-09-14T14:01:04.848Z,1.70
2022-09-14T14:03:33.862Z,2.13
2022-09-14T14:06:24.138Z,1.70
2022-09-14T14:08:58.847Z,1.77
2022-09-14T14:11:37.875Z,1.80
2022-09-14T14:14:17.371Z,1.67
2022-09-14T14:17:25.853Z,1.90
2022-09-14T14:19:55.544Z,1.27
2022-09-14T14:22:33.596Z,1.50
2022-09-14T14:25:16.520Z,1.73
2022-09-14T14:27:47.281Z,2.05
2022-09-14T14:30:16.544Z,1.90
2022-09-14T14:32:43.884Z,2.22
2022-09-14T14:35:23.036Z,1.55
2022-09-14T14:37:51.307Z,1.77
2022-09-14T14:40:19.924Z,1.63
2022-09-14T14:42:48.241Z,1.58
2022-09-14T14:45:19.373Z,1.60
2022-09-14T14:47:53.008Z,1.70
2022-09-14T14:50:26.362Z,1.13
2022-09-14T14:52:54.145Z,1.30
2022-09-14T14:55:22.947Z,1.70
2022-09-14T14:57:54.068Z,1.30
2022-09-14T15:00:24.544Z,1.67
2022-09-14T15:02:52.476Z,1.30
2022-09-14T15:05:20.866Z,1.35
2022-09-14T15:07:50.135Z,1.65
2022-09-14T15:10:18.308Z,2.58
2022-09-14T15:12:47.722Z,1.88
2022-09-14T15:15:21.067Z,1.70
2022-09-14T15:17:48.451Z,1.80
2022-09-14T15:20:16.053Z,2.00
2022-09-14T15:22:43.451Z,2.03
2022-09-14T15:25:12.499Z,1.60
2022-09-14T15:27:40.937Z,1.83
2022-09-14T15:30:09.643Z,1.90
2022-09-14T15:32:37.220Z,1.90
2022-09-14T15:35:06.258Z,1.80
2022-09-14T15:37:37.220Z,2.00
2022-09-14T15:40:08.145Z,2.17
2022-09-14T15:42:35.574Z,1.80
2022-09-14T15:45:04.032Z,1.95
2022-09-14T15:47:36.085Z,1.80
2022-09-14T15:50:06.128Z,2.40
2022-09-14T15:55:21.787Z,2.30
2022-09-14T15:57:49.197Z,2.50
2022-09-14T16:00:16.783Z,2.35
2022-09-14T16:02:44.154Z,2.50
2022-09-14T16:05:16.447Z,2.60
2022-09-14T16:07:43.909Z,2.30
2022-09-14T16:10:11.356Z,2.22
2022-09-14T16:12:38.918Z,2.70
2022-09-14T16:15:09.985Z,2.78
2022-09-14T16:17:37.486Z,3.30
2022-09-14T16:20:05.982Z,2.90
2022-09-14T16:22:34.810Z,2.95
2022-09-14T16:25:02.411Z,3.15
2022-09-14T16:27:30.667Z,2.97
2022-09-14T16:29:58.077Z,3.10
2022-09-14T16:32:25.651Z,3.22
2022-09-14T16:34:53.006Z,3.78
2022-09-14T16:37:21.562Z,3.50
2022-09-14T16:39:49.610Z,3.28
2022-09-14T16:42:16.991Z,3.42
2022-09-14T16:44:48.105Z,2.75
2022-09-14T16:47:15.655Z,3.13
2022-09-14T16:49:43.060Z,3.22
2022-09-14T16:52:11.068Z,2.97
2022-09-14T16:54:38.966Z,3.17
2022-09-14T16:57:07.140Z,3.38
2022-09-14T16:59:37.743Z,3.30
2022-09-14T17:02:05.544Z,3.85
2022-09-14T17:04:33.826Z,3.72
2022-09-14T17:07:01.481Z,3.92
2022-09-14T17:09:30.555Z,3.88
2022-09-14T17:11:59.063Z,4.72
2022-09-14T17:14:29.443Z,3.90
2022-09-14T17:16:57.545Z,4.68
2022-09-14T17:19:25.512Z,4.40
2022-09-14T17:21:55.156Z,4.00
2022-09-14T17:24:22.836Z,4.18
2022-09-14T17:26:50.402Z,4.55
2022-09-14T17:29:18.865Z,4.93
2022-09-14T17:31:46.678Z,4.63
2022-09-14T17:34:17.193Z,4.35
2022-09-14T17:36:45.824Z,5.03
2022-09-14T17:39:15.721Z,5.25
2022-09-14T17:41:43.971Z,6.93
2022-09-14T17:44:13.809Z,6.85
2022-09-14T17:46:51.154Z,8.35
2022-09-14T17:49:21.598Z,8.20
2022-09-14T17:51:49.594Z,9.23
2022-09-14T17:54:19.400Z,8.45
2022-09-14T17:56:46.908Z,10.35
2022-09-14T17:59:18.015Z,10.70
2022-09-14T18:01:45.646Z,11.63
2022-09-14T18:04:15.881Z,9.80
2022-09-14T18:06:47.551Z,9.88
2022-09-14T18:09:20.542Z,10.57
2022-09-14T18:11:49.790Z,10.05
2022-09-14T18:14:18.011Z,10.90
2022-09-14T18:16:45.844Z,11.15
2022-09-14T18:19:15.268Z,10.70
2022-09-14T18:21:43.513Z,10.95
2022-09-14T18:24:12.357Z,10.75
2022-09-14T18:26:39.884Z,10.45
2022-09-14T18:29:21.543Z,10.70
2022-09-14T18:31:58.385Z,10.77
2022-09-14T18:34:26.157Z,11.18
2022-09-14T18:36:53.786Z,12.68
2022-09-14T18:39:21.163Z,12.10
2022-09-14T18:41:51.794Z,12.02
2022-09-14T18:44:19.185Z,13.20
2022-09-14T18:46:47.339Z,13.05
2022-09-14T18:49:15.583Z,13.68
2022-09-14T18:51:43.009Z,12.25
2022-09-14T18:54:13.101Z,12.07
2022-09-14T18:56:40.863Z,11.52
2022-09-14T18:59:12.669Z,12.55
2022-09-14T19:01:42.936Z,12.20
2022-09-14T19:04:11.591Z,11.82
2022-09-14T19:06:41.634Z,11.63
2022-09-14T19:09:13.290Z,13.15
2022-09-14T19:11:42.357Z,12.77
2022-09-14T19:14:12.333Z,13.68
2022-09-14T19:16:41.379Z,13.60
2022-09-14T19:19:11.434Z,12.40
2022-09-14T19:21:38.914Z,12.30
2022-09-14T19:24:09.065Z,13.27
2022-09-14T19:26:45.367Z,12.60
2022-09-14T19:29:16.318Z,10.85
2022-09-14T19:31:43.816Z,10.00
2022-09-14T19:34:11.849Z,9.13
2022-09-14T19:36:39.452Z,7.45
2022-09-14T19:39:09.345Z,6.25
2022-09-14T19:41:37.522Z,6.18
2022-09-14T19:44:09.083Z,5.38
2022-09-14T19:46:37.502Z,4.72
2022-09-14T19:49:07.305Z,4.50
2022-09-14T19:51:50.147Z,4.43
2022-09-14T19:54:17.644Z,4.78
2022-09-14T19:56:46.465Z,4.75
2022-09-14T19:59:14.486Z,5.95
2022-09-14T20:01:42.444Z,4.47
2022-09-14T20:04:11.161Z,4.90
2022-09-14T20:06:42.714Z,4.03
2022-09-14T20:09:13.499Z,4.18
2022-09-14T20:11:45.253Z,4.03
2022-09-14T20:14:16.373Z,4.10
2022-09-14T20:16:49.370Z,3.30
2022-09-14T20:19:19.582Z,3.88
2022-09-14T20:21:49.362Z,4.15
2022-09-14T20:24:19.764Z,3.80
2022-09-14T20:26:50.557Z,3.97
2022-09-14T20:29:19.624Z,4.00
2022-09-14T20:31:47.679Z,3.33
2022-09-14T20:34:16.885Z,4.32
2022-09-14T20:36:44.573Z,3.72
2022-09-14T20:39:12.024Z,3.75
2022-09-14T20:41:40.158Z,3.45
2022-09-14T20:44:07.715Z,3.60
2022-09-14T20:46:39.358Z,3.80
2022-09-14T20:49:11.528Z,3.90
2022-09-14T20:51:40.147Z,3.63
2022-09-14T20:54:10.089Z,4.05
2022-09-14T20:56:37.811Z,4.15
2022-09-14T20:59:09.881Z,4.10
2022-09-14T21:01:39.200Z,4.63
2022-09-14T21:04:09.335Z,4.40
2022-09-14T21:06:39.461Z,4.35
2022-09-14T21:09:08.733Z,3.80
2022-09-14T21:11:39.143Z,4.35
2022-09-14T21:14:06.823Z,3.97
2022-09-14T21:16:43.152Z,4.80
2022-09-14T21:19:21.724Z,5.18
2022-09-14T21:21:51.785Z,4.45
2022-09-14T21:24:20.826Z,4.85
2022-09-14T21:26:48.531Z,4.30
2022-09-14T21:29:20.543Z,4.07
2022-09-14T21:31:49.131Z,4.55
2022-09-14T21:34:16.654Z,4.03
2022-09-14T21:36:47.735Z,4.28
2022-09-14T21:39:23.447Z,4.60
2022-09-14T21:41:57.571Z,3.95
2022-09-14T21:44:34.172Z,3.75
2022-09-14T21:47:02.724Z,4.78
2022-09-14T21:49:30.732Z,4.57
2022-09-14T21:51:58.111Z,4.30
2022-09-14T21:54:25.947Z,4.60
2022-09-14T21:56:53.971Z,4.30
2022-09-14T21:59:22.687Z,4.93
2022-09-14T22:01:50.602Z,4.82
2022-09-14T22:04:20.772Z,5.95
2022-09-14T22:06:48.736Z,6.88
2022-09-14T22:09:18.341Z,7.05
2022-09-14T22:11:47.488Z,7.20
2022-09-14T22:14:20.182Z,7.22
2022-09-14T22:16:49.259Z,5.88
2022-09-14T22:19:20.119Z,6.22
2022-09-14T22:21:48.516Z,6.13
2022-09-14T22:24:32.322Z,5.38
2022-09-14T22:27:03.004Z,4.97
2022-09-14T22:29:30.406Z,4.20
2022-09-14T22:31:57.815Z,4.93
2022-09-14T22:34:25.216Z,4.72
2022-09-14T22:36:52.711Z,4.18
2022-09-14T22:39:20.269Z,5.05
2022-09-14T22:41:47.680Z,4.97
2022-09-14T22:44:15.071Z,4.88
2022-09-14T22:46:43.420Z,4.50
2022-09-14T22:49:11.141Z,4.38
2022-09-14T22:51:38.891Z,4.57
2022-09-14T22:54:06.394Z,4.70
2022-09-14T22:56:36.090Z,4.13
2022-09-14T22:59:09.497Z,3.90
2022-09-14T23:01:39.632Z,3.92
2022-09-14T23:04:10.080Z,3.45
2022-09-14T23:06:43.070Z,3.35
2022-09-14T23:09:13.036Z,3.55
2022-09-14T23:11:42.458Z,3.60
2022-09-14T23:14:09.811Z,3.50
2022-09-14T23:16:37.364Z,3.40
2022-09-14T23:19:07.205Z,3.22
2022-09-14T23:21:35.455Z,3.03
2022-09-14T23:24:05.679Z,3.40
2022-09-14T23:26:34.176Z,3.20
2022-09-14T23:29:07.613Z,3.42
2022-09-14T23:31:35.361Z,3.10
2022-09-14T23:34:04.507Z,3.13
2022-09-14T23:36:32.460Z,2.83
2022-09-14T23:38:59.885Z,3.05
2022-09-14T23:41:27.805Z,3.00
2022-09-14T23:43:55.448Z,2.92
2022-09-14T23:46:23.633Z,2.90
2022-09-14T23:48:56.365Z,3.20
2022-09-14T23:51:27.098Z,2.80
2022-09-14T23:53:54.573Z,2.85
2022-09-14T23:56:23.360Z,3.22
2022-09-14T23:58:51.117Z,2.65
